createdAt,value
2017-07-31T00:00:32.676Z,3.07
2017-07-31T00:03:01.974Z,8.43
2017-07-31T00:05:31.438Z,7.73
2017-07-31T00:08:00.868Z,4.10
2017-07-31T00:10:30.311Z,3.90
2017-07-31T00:12:59.880Z,3.20
2017-07-31T00:15:29.320Z,3.83
2017-07-31T00:17:58.812Z,3.53
2017-07-31T00:20:28.295Z,3.30
2017-07-31T00:22:57.805Z,3.83
2017-07-31T00:25:27.245Z,3.80
2017-07-31T00:27:56.750Z,4.10
2017-07-31T00:30:26.200Z,3.73
2017-07-31T00:32:55.485Z,4.00
2017-07-31T00:35:24.961Z,3.60
2017-07-31T00:37:55.119Z,3.30
2017-07-31T00:40:24.573Z,3.57
2017-07-31T00:42:54.035Z,3.77
2017-07-31T00:45:23.603Z,4.10
2017-07-31T00:47:53.049Z,3.90
2017-07-31T00:50:22.599Z,3.60
2017-07-31T00:52:52.034Z,3.30
2017-07-31T00:55:22.403Z,4.00
2017-07-31T00:57:51.864Z,3.60
2017-07-31T01:00:21.341Z,3.73
2017-07-31T01:02:50.812Z,4.00
2017-07-31T01:05:20.293Z,3.50
2017-07-31T01:07:49.738Z,3.57
2017-07-31T01:10:19.259Z,4.70
2017-07-31T01:12:48.689Z,3.40
2017-07-31T01:15:18.177Z,3.90
2017-07-31T01:17:47.487Z,3.97
2017-07-31T01:20:16.980Z,3.33
2017-07-31T01:22:46.408Z,3.67
2017-07-31T01:25:15.891Z,3.57
2017-07-31T01:27:45.332Z,3.80
2017-07-31T01:30:14.827Z,3.37
2017-07-31T01:32:44.383Z,3.40
2017-07-31T01:35:13.888Z,3.00
2017-07-31T01:37:43.332Z,4.00
2017-07-31T01:40:12.847Z,3.73
2017-07-31T01:42:42.284Z,3.30
2017-07-31T01:45:11.795Z,3.60
2017-07-31T01:47:41.226Z,3.50
2017-07-31T01:50:10.709Z,3.57
2017-07-31T01:52:40.156Z,3.87
2017-07-31T01:55:09.621Z,3.60
2017-07-31T01:57:39.064Z,3.50
2017-07-31T02:00:08.591Z,4.17
2017-07-31T02:02:37.868Z,3.63
2017-07-31T02:05:07.363Z,3.43
2017-07-31T02:07:36.629Z,3.33
2017-07-31T02:10:06.133Z,3.40
2017-07-31T02:12:35.564Z,3.53
2017-07-31T02:15:04.886Z,3.67
2017-07-31T02:17:34.337Z,3.53
2017-07-31T02:20:03.837Z,3.50
2017-07-31T02:22:33.305Z,3.47
2017-07-31T02:25:02.822Z,3.20
2017-07-31T02:27:32.260Z,3.77
2017-07-31T02:30:01.764Z,3.87
2017-07-31T02:32:31.208Z,3.00
2017-07-31T02:35:00.648Z,2.87
2017-07-31T02:37:30.107Z,2.53
2017-07-31T02:39:59.574Z,3.20
2017-07-31T02:42:29.010Z,3.33
2017-07-31T02:44:58.456Z,3.47
2017-07-31T02:47:27.903Z,3.20
2017-07-31T02:49:57.349Z,3.47
2017-07-31T02:52:26.790Z,3.83
2017-07-31T02:54:56.253Z,3.20
2017-07-31T02:57:25.688Z,3.70
2017-07-31T02:59:55.128Z,3.33
2017-07-31T03:02:24.602Z,3.73
2017-07-31T03:04:54.062Z,4.20
2017-07-31T03:07:23.496Z,3.23
2017-07-31T03:09:52.964Z,3.57
2017-07-31T03:12:22.419Z,3.30
2017-07-31T03:14:52.636Z,3.67
2017-07-31T03:17:22.089Z,3.93
2017-07-31T03:19:51.527Z,3.57
2017-07-31T03:22:20.966Z,3.60
2017-07-31T03:24:50.410Z,3.73
2017-07-31T03:27:19.892Z,4.10
2017-07-31T03:29:49.357Z,3.77
2017-07-31T03:32:18.795Z,3.50
2017-07-31T03:34:48.241Z,3.93
2017-07-31T03:37:17.799Z,3.93
2017-07-31T03:39:47.228Z,4.30
2017-07-31T03:42:16.815Z,3.77
2017-07-31T03:44:46.258Z,3.47
2017-07-31T03:47:15.710Z,3.67
2017-07-31T03:49:45.157Z,3.30
2017-07-31T03:52:14.612Z,3.83
2017-07-31T03:54:44.091Z,4.27
2017-07-31T03:57:13.517Z,2.90
2017-07-31T03:59:42.988Z,2.97
2017-07-31T04:02:12.443Z,3.30
2017-07-31T04:04:41.881Z,3.60
2017-07-31T04:07:11.352Z,3.87
2017-07-31T04:09:40.796Z,3.43
2017-07-31T04:12:10.224Z,3.50
2017-07-31T04:14:39.674Z,3.70
2017-07-31T04:17:09.131Z,2.90
2017-07-31T04:19:38.575Z,3.27
2017-07-31T04:22:08.026Z,3.70
2017-07-31T04:24:37.464Z,3.80
2017-07-31T04:27:06.916Z,3.57
2017-07-31T04:29:36.401Z,3.53
2017-07-31T04:32:05.844Z,4.13
2017-07-31T04:34:35.298Z,3.77
2017-07-31T04:37:04.733Z,3.70
2017-07-31T04:39:34.193Z,3.27
2017-07-31T04:42:03.624Z,4.13
2017-07-31T04:44:33.071Z,3.40
2017-07-31T04:47:02.526Z,3.50
2017-07-31T04:49:31.989Z,4.50
2017-07-31T04:52:01.443Z,3.23
2017-07-31T04:54:30.896Z,3.77
2017-07-31T04:57:00.351Z,3.53
2017-07-31T04:59:29.997Z,3.03
2017-07-31T05:01:59.433Z,3.70
2017-07-31T05:04:28.897Z,3.40
2017-07-31T05:06:58.353Z,3.17
2017-07-31T05:09:27.797Z,3.00
2017-07-31T05:11:57.253Z,3.33
2017-07-31T05:14:26.708Z,2.73
2017-07-31T05:16:56.160Z,2.90
2017-07-31T05:19:25.584Z,3.33
2017-07-31T05:21:55.062Z,3.00
2017-07-31T05:24:24.507Z,3.53
2017-07-31T05:26:53.949Z,3.30
2017-07-31T05:29:23.417Z,3.33
2017-07-31T05:31:52.840Z,3.10
2017-07-31T05:34:22.283Z,3.10
2017-07-31T05:36:51.733Z,3.10
2017-07-31T05:39:21.179Z,3.47
2017-07-31T05:41:50.614Z,2.80
2017-07-31T05:44:20.080Z,3.43
2017-07-31T05:46:49.512Z,3.20
2017-07-31T05:49:18.953Z,4.80
2017-07-31T05:51:48.398Z,3.30
2017-07-31T05:54:17.836Z,3.00
2017-07-31T05:56:47.288Z,3.70
2017-07-31T05:59:16.736Z,3.20
2017-07-31T06:01:46.196Z,9.27
2017-07-31T06:04:15.623Z,4.10
2017-07-31T06:06:45.101Z,2.97
2017-07-31T06:09:14.543Z,5.07
2017-07-31T06:11:43.998Z,3.70
2017-07-31T06:14:13.445Z,3.63
2017-07-31T06:16:42.708Z,3.00
2017-07-31T06:19:12.154Z,3.40
2017-07-31T06:21:41.597Z,3.17
2017-07-31T06:24:11.048Z,3.33
2017-07-31T06:26:40.530Z,3.37
2017-07-31T06:29:09.953Z,3.30
2017-07-31T06:31:39.240Z,3.97
2017-07-31T06:34:08.691Z,3.90
2017-07-31T06:36:38.127Z,3.10
2017-07-31T06:39:07.577Z,3.77
2017-07-31T06:41:37.016Z,3.70
2017-07-31T06:44:06.476Z,4.63
2017-07-31T06:46:35.919Z,4.47
2017-07-31T06:49:05.352Z,3.90
2017-07-31T06:51:34.800Z,4.30
2017-07-31T06:54:04.240Z,5.53
2017-07-31T06:56:35.421Z,5.00
2017-07-31T06:59:04.906Z,5.20
2017-07-31T07:01:34.332Z,4.80
2017-07-31T07:04:03.796Z,5.40
2017-07-31T07:06:33.269Z,6.63
2017-07-31T07:09:02.704Z,6.27
2017-07-31T07:11:32.156Z,7.27
2017-07-31T07:14:01.610Z,6.20
2017-07-31T07:16:31.064Z,7.13
2017-07-31T07:19:00.504Z,5.60
2017-07-31T07:21:29.755Z,5.20
2017-07-31T07:23:59.202Z,5.30
2017-07-31T07:26:28.648Z,4.73
2017-07-31T07:28:58.131Z,4.60
2017-07-31T07:31:27.634Z,4.60
2017-07-31T07:33:57.055Z,4.50
2017-07-31T07:36:26.511Z,3.73
2017-07-31T07:38:56.636Z,3.80
2017-07-31T07:41:26.088Z,5.07
2017-07-31T07:43:55.524Z,4.20
2017-07-31T07:46:24.972Z,3.70
2017-07-31T07:48:55.098Z,3.73
2017-07-31T07:51:24.541Z,3.57
2017-07-31T07:53:53.976Z,3.37
2017-07-31T07:56:23.421Z,3.70
2017-07-31T07:58:52.885Z,3.40
2017-07-31T08:01:22.338Z,2.50
2017-07-31T08:03:51.786Z,2.87
2017-07-31T08:06:21.225Z,3.07
2017-07-31T08:08:50.666Z,3.13
2017-07-31T08:11:20.123Z,3.60
2017-07-31T08:13:49.560Z,2.90
2017-07-31T08:16:19.007Z,2.53
2017-07-31T08:18:48.447Z,2.80
2017-07-31T08:21:17.893Z,2.97
2017-07-31T08:23:47.337Z,2.90
2017-07-31T08:26:16.857Z,2.60
2017-07-31T08:28:46.283Z,2.93
2017-07-31T08:31:15.723Z,2.73
2017-07-31T08:33:45.192Z,3.33
2017-07-31T08:36:14.635Z,3.00
2017-07-31T08:38:44.093Z,3.53
2017-07-31T08:41:13.542Z,3.10
2017-07-31T08:43:43.674Z,3.03
2017-07-31T08:46:13.124Z,3.03
2017-07-31T08:48:42.570Z,3.17
2017-07-31T08:51:12.022Z,2.47
2017-07-31T08:53:41.456Z,2.93
2017-07-31T08:56:10.898Z,2.70
2017-07-31T08:58:40.359Z,2.97
2017-07-31T09:01:09.792Z,3.10
2017-07-31T09:03:39.255Z,3.23
2017-07-31T09:06:08.695Z,3.00
2017-07-31T09:08:38.133Z,2.97
2017-07-31T09:11:07.651Z,2.70
2017-07-31T09:13:37.076Z,2.60
2017-07-31T09:16:06.522Z,2.60
2017-07-31T09:18:35.969Z,2.60
2017-07-31T09:21:05.408Z,2.27
2017-07-31T09:23:34.880Z,2.40
2017-07-31T09:26:04.329Z,3.07
2017-07-31T09:28:33.884Z,2.90
2017-07-31T09:31:03.344Z,2.50
2017-07-31T09:33:32.783Z,2.30
2017-07-31T09:36:02.233Z,2.77
2017-07-31T09:38:31.673Z,2.73
2017-07-31T09:41:01.112Z,2.27
2017-07-31T09:43:30.575Z,2.03
2017-07-31T09:46:00.011Z,2.33
2017-07-31T09:48:29.449Z,2.50
2017-07-31T09:50:58.903Z,1.93
2017-07-31T09:53:28.365Z,2.03
2017-07-31T09:55:57.624Z,2.20
2017-07-31T09:58:27.058Z,2.20
2017-07-31T10:00:56.511Z,2.43
2017-07-31T10:03:26.461Z,2.10
2017-07-31T10:05:55.936Z,1.93
2017-07-31T10:08:25.372Z,1.90
2017-07-31T10:10:54.816Z,1.90
2017-07-31T10:13:24.273Z,2.17
2017-07-31T10:15:53.753Z,2.53
2017-07-31T10:18:23.176Z,2.27
2017-07-31T10:20:52.620Z,2.20
2017-07-31T10:23:22.075Z,2.10
2017-07-31T10:25:51.519Z,2.23
2017-07-31T10:28:20.973Z,2.27
2017-07-31T10:30:50.414Z,2.30
2017-07-31T10:33:19.875Z,3.20
2017-07-31T10:35:49.337Z,2.63
2017-07-31T10:38:18.784Z,2.57
2017-07-31T10:40:48.231Z,2.57
2017-07-31T10:43:17.677Z,2.60
2017-07-31T10:45:47.164Z,2.60
2017-07-31T10:48:16.604Z,2.60
2017-07-31T10:50:46.060Z,3.00
2017-07-31T10:53:15.526Z,3.27
2017-07-31T10:55:44.973Z,3.07
2017-07-31T10:58:14.463Z,3.10
2017-07-31T11:00:43.886Z,3.10
2017-07-31T11:03:13.348Z,3.20
2017-07-31T11:05:42.796Z,3.17
2017-07-31T11:08:12.257Z,2.40
2017-07-31T11:10:41.688Z,2.23
2017-07-31T11:13:11.141Z,2.70
2017-07-31T11:15:40.626Z,2.40
2017-07-31T11:18:10.069Z,2.67
2017-07-31T11:20:39.532Z,2.43
2017-07-31T11:23:08.983Z,2.53
2017-07-31T11:25:38.439Z,2.67
2017-07-31T11:28:07.869Z,1.87
2017-07-31T11:30:37.341Z,2.53
2017-07-31T11:33:06.787Z,2.33
2017-07-31T11:35:36.251Z,3.17
2017-07-31T11:38:05.705Z,2.40
2017-07-31T11:40:35.154Z,2.10
2017-07-31T11:43:04.596Z,2.70
2017-07-31T11:45:34.038Z,1.97
2017-07-31T11:48:03.494Z,2.63
2017-07-31T11:50:32.934Z,2.70
2017-07-31T11:53:02.373Z,1.97
2017-07-31T11:55:31.828Z,2.43
2017-07-31T11:58:01.276Z,2.17
2017-07-31T12:00:30.715Z,2.13
2017-07-31T12:02:59.988Z,2.40
2017-07-31T12:05:29.461Z,2.03
2017-07-31T12:07:58.957Z,2.07
2017-07-31T12:10:28.405Z,2.40
2017-07-31T12:12:57.865Z,2.40
2017-07-31T12:15:27.294Z,2.30
2017-07-31T12:17:56.733Z,2.00
2017-07-31T12:20:26.195Z,2.23
2017-07-31T12:22:55.690Z,2.43
2017-07-31T12:25:25.124Z,2.47
2017-07-31T12:27:54.585Z,2.27
2017-07-31T12:30:24.045Z,2.43
2017-07-31T12:32:53.353Z,2.70
2017-07-31T12:35:22.849Z,2.47
2017-07-31T12:37:52.302Z,2.50
2017-07-31T12:40:21.922Z,2.50
2017-07-31T12:42:51.349Z,2.30
2017-07-31T12:45:20.863Z,2.10
2017-07-31T12:47:50.281Z,2.17
2017-07-31T12:50:19.809Z,2.00
2017-07-31T12:52:49.229Z,2.30
2017-07-31T12:55:18.711Z,2.60
2017-07-31T12:57:48.249Z,2.00
2017-07-31T13:00:17.711Z,1.90
2017-07-31T13:02:47.173Z,1.90
2017-07-31T13:05:16.667Z,1.90
2017-07-31T13:07:46.121Z,1.60
2017-07-31T13:10:15.621Z,1.80
2017-07-31T13:12:45.075Z,1.80
2017-07-31T13:15:14.554Z,1.57
2017-07-31T13:17:43.990Z,1.53
2017-07-31T13:20:13.484Z,1.30
2017-07-31T13:22:42.920Z,1.60
2017-07-31T13:25:12.241Z,1.23
2017-07-31T13:27:41.678Z,1.70
2017-07-31T13:30:11.176Z,1.20
2017-07-31T13:32:40.610Z,1.10
2017-07-31T13:35:10.105Z,1.00
2017-07-31T13:37:39.554Z,1.33
2017-07-31T13:40:09.026Z,1.10
2017-07-31T13:42:38.497Z,1.30
2017-07-31T13:45:07.974Z,1.47
2017-07-31T13:47:37.433Z,1.40
2017-07-31T13:50:06.926Z,1.50
2017-07-31T13:52:36.349Z,1.67
2017-07-31T13:55:05.871Z,1.00
2017-07-31T13:57:35.317Z,1.40
2017-07-31T14:00:04.825Z,1.20
2017-07-31T14:02:34.176Z,1.67
2017-07-31T14:05:03.745Z,1.20
2017-07-31T14:07:33.176Z,0.90
2017-07-31T14:10:02.680Z,1.00
2017-07-31T14:12:32.127Z,0.90
2017-07-31T14:15:01.635Z,1.30
2017-07-31T14:17:31.072Z,1.20
2017-07-31T14:20:00.536Z,1.13
2017-07-31T14:22:30.531Z,1.00
2017-07-31T14:24:59.978Z,0.93
2017-07-31T14:27:29.425Z,1.10
2017-07-31T14:29:58.871Z,1.20
2017-07-31T14:32:28.317Z,0.93
2017-07-31T14:34:57.757Z,1.33
2017-07-31T14:37:27.197Z,0.90
2017-07-31T14:39:56.664Z,1.00
2017-07-31T14:42:26.077Z,1.10
2017-07-31T14:44:55.535Z,1.10
2017-07-31T14:47:24.995Z,1.03
2017-07-31T14:49:54.442Z,1.00
2017-07-31T14:52:23.901Z,0.90
2017-07-31T14:54:53.349Z,1.20
2017-07-31T14:57:22.790Z,1.70
2017-07-31T14:59:52.259Z,1.33
2017-07-31T15:02:21.693Z,2.30
2017-07-31T15:04:51.132Z,1.70
2017-07-31T15:07:20.569Z,1.30
2017-07-31T15:09:50.017Z,1.00
2017-07-31T15:12:19.467Z,1.20
2017-07-31T15:14:48.912Z,1.30
2017-07-31T15:17:18.400Z,1.30
2017-07-31T15:19:48.209Z,1.07
2017-07-31T15:22:17.638Z,1.30
2017-07-31T15:24:47.112Z,1.13
2017-07-31T15:27:16.567Z,1.50
2017-07-31T15:29:46.014Z,1.20
2017-07-31T15:32:15.541Z,1.30
2017-07-31T15:34:44.973Z,1.17
2017-07-31T15:37:14.481Z,1.20
2017-07-31T15:39:43.916Z,1.67
2017-07-31T15:42:13.404Z,1.00
2017-07-31T15:44:42.849Z,1.50
2017-07-31T15:47:12.296Z,1.30
2017-07-31T15:49:41.773Z,1.30
2017-07-31T15:52:11.002Z,1.10
2017-07-31T15:54:40.454Z,1.30
2017-07-31T15:57:09.899Z,1.10
2017-07-31T15:59:39.337Z,1.50
2017-07-31T16:02:08.819Z,1.10
2017-07-31T16:04:38.262Z,1.30
2017-07-31T16:07:07.688Z,1.67
2017-07-31T16:09:37.136Z,1.20
2017-07-31T16:12:06.590Z,1.07
2017-07-31T16:14:36.026Z,1.20
2017-07-31T16:17:05.470Z,1.00
2017-07-31T16:19:34.923Z,1.00
2017-07-31T16:22:04.352Z,1.17
2017-07-31T16:24:33.806Z,0.97
2017-07-31T16:27:03.259Z,1.20
2017-07-31T16:29:32.701Z,1.33
2017-07-31T16:32:02.154Z,1.27
2017-07-31T16:34:31.605Z,1.10
2017-07-31T16:37:00.446Z,1.30
2017-07-31T16:39:29.148Z,1.40
2017-07-31T16:42:01.966Z,1.10
2017-07-31T16:44:47.340Z,1.70
2017-07-31T16:47:27.566Z,1.10
2017-07-31T16:49:56.511Z,1.00
2017-07-31T16:52:25.489Z,1.30
2017-07-31T16:54:55.065Z,1.13
2017-07-31T17:00:02.214Z,1.23
2017-07-31T17:02:31.394Z,1.40
2017-07-31T17:05:00.921Z,1.37
2017-07-31T17:07:30.377Z,1.23
2017-07-31T17:09:59.825Z,1.40
2017-07-31T17:12:29.273Z,1.47
2017-07-31T17:14:58.777Z,1.60
2017-07-31T17:17:28.218Z,1.60
2017-07-31T17:19:57.689Z,1.47
2017-07-31T17:22:27.176Z,1.23
2017-07-31T17:24:56.640Z,1.57
2017-07-31T17:27:26.101Z,1.20
2017-07-31T17:29:55.516Z,1.40
2017-07-31T17:32:24.987Z,1.93
2017-07-31T17:34:54.433Z,2.00
2017-07-31T17:37:23.945Z,1.47
2017-07-31T17:39:53.408Z,1.90
2017-07-31T17:42:22.665Z,1.70
2017-07-31T17:44:52.113Z,1.50
2017-07-31T17:47:21.562Z,1.60
2017-07-31T17:49:51.029Z,1.70
2017-07-31T17:52:20.681Z,2.00
2017-07-31T17:54:50.140Z,1.90
2017-07-31T17:57:19.594Z,2.10
2017-07-31T17:59:48.881Z,1.90
2017-07-31T18:02:18.331Z,2.00
2017-07-31T18:04:47.793Z,1.80
2017-07-31T18:07:17.228Z,2.60
2017-07-31T18:09:46.704Z,2.73
2017-07-31T18:12:16.158Z,3.00
2017-07-31T18:14:45.620Z,3.30
2017-07-31T18:17:15.065Z,3.77
2017-07-31T18:19:44.549Z,3.63
2017-07-31T18:22:13.990Z,2.93
2017-07-31T18:24:43.448Z,3.70
2017-07-31T18:27:12.893Z,2.80
2017-07-31T18:29:42.348Z,2.97
2017-07-31T18:32:11.636Z,3.33
2017-07-31T18:34:41.107Z,2.90
2017-07-31T18:37:10.562Z,3.73
2017-07-31T18:39:40.001Z,3.57
2017-07-31T18:42:09.469Z,3.63
2017-07-31T18:44:38.918Z,3.90
2017-07-31T18:47:08.392Z,4.07
2017-07-31T18:49:37.860Z,2.73
2017-07-31T18:52:07.330Z,3.07
2017-07-31T18:54:36.805Z,3.03
2017-07-31T18:57:06.338Z,3.60
2017-07-31T18:59:35.776Z,3.27
2017-07-31T19:02:05.241Z,7.07
2017-07-31T19:04:34.708Z,3.60
2017-07-31T19:07:04.152Z,3.33
2017-07-31T19:09:33.652Z,4.13
2017-07-31T19:12:02.889Z,3.50
2017-07-31T19:14:32.372Z,4.07
2017-07-31T19:17:01.829Z,4.30
2017-07-31T19:19:31.274Z,3.20
2017-07-31T19:22:00.740Z,3.37
2017-07-31T19:24:30.209Z,3.70
2017-07-31T19:26:59.636Z,3.27
2017-07-31T19:29:29.077Z,3.13
2017-07-31T19:31:58.669Z,3.20
2017-07-31T19:34:28.135Z,4.93
2017-07-31T19:36:57.597Z,4.17
2017-07-31T19:39:26.880Z,3.70
2017-07-31T19:41:56.304Z,4.53
2017-07-31T19:44:25.764Z,3.50
2017-07-31T19:46:55.218Z,3.33
2017-07-31T19:49:24.662Z,3.40
2017-07-31T19:51:54.107Z,3.30
2017-07-31T19:54:23.378Z,4.23
2017-07-31T19:56:52.856Z,4.40
2017-07-31T19:59:22.291Z,4.17
2017-07-31T20:01:51.764Z,4.63
2017-07-31T20:04:21.251Z,4.23
2017-07-31T20:06:51.378Z,3.80
2017-07-31T20:09:20.827Z,3.40
2017-07-31T20:11:50.272Z,4.40
2017-07-31T20:14:19.754Z,3.90
2017-07-31T20:16:49.197Z,3.90
2017-07-31T20:19:18.685Z,3.53
2017-07-31T20:21:48.117Z,5.00
2017-07-31T20:24:17.554Z,3.43
2017-07-31T20:26:47.010Z,4.07
2017-07-31T20:29:16.525Z,3.47
2017-07-31T20:31:45.980Z,4.00
2017-07-31T20:34:15.424Z,4.17
2017-07-31T20:36:44.878Z,4.60
2017-07-31T20:39:14.333Z,3.57
2017-07-31T20:41:43.806Z,3.37
2017-07-31T20:44:13.255Z,3.43
2017-07-31T20:46:42.826Z,3.47
2017-07-31T20:49:12.275Z,3.67
2017-07-31T20:51:41.719Z,3.43
2017-07-31T20:54:11.166Z,2.90
2017-07-31T20:56:40.616Z,4.10
2017-07-31T20:59:10.046Z,3.83
2017-07-31T21:01:39.489Z,3.40
2017-07-31T21:04:08.949Z,3.13
2017-07-31T21:06:38.429Z,3.23
2017-07-31T21:09:07.961Z,2.83
2017-07-31T21:11:37.399Z,3.17
2017-07-31T21:14:06.854Z,3.40
2017-07-31T21:16:36.283Z,4.33
2017-07-31T21:19:05.563Z,3.43
2017-07-31T21:21:35.008Z,3.10
2017-07-31T21:24:04.489Z,3.10
2017-07-31T21:26:33.910Z,3.60
2017-07-31T21:29:03.356Z,3.80
2017-07-31T21:31:32.813Z,3.93
2017-07-31T21:34:02.269Z,4.60
2017-07-31T21:36:31.714Z,3.87
2017-07-31T21:39:01.161Z,3.30
2017-07-31T21:41:30.602Z,3.80
2017-07-31T21:44:00.084Z,3.97
2017-07-31T21:46:29.516Z,4.53
2017-07-31T21:48:58.968Z,4.70
2017-07-31T21:51:28.422Z,4.40
2017-07-31T21:53:57.872Z,17.03
2017-07-31T21:56:27.333Z,5.90
2017-07-31T21:58:56.791Z,3.87
2017-07-31T22:01:26.237Z,4.10
2017-07-31T22:03:55.703Z,4.93
2017-07-31T22:06:25.146Z,5.20
2017-07-31T22:08:54.670Z,5.20
2017-07-31T22:11:24.097Z,3.57
2017-07-31T22:13:53.564Z,4.97
2017-07-31T22:16:28.551Z,3.90
2017-07-31T22:18:57.998Z,6.30
2017-07-31T22:21:32.800Z,5.63
2017-07-31T22:24:02.009Z,4.40
2017-07-31T22:26:31.453Z,4.40
2017-07-31T22:29:00.920Z,4.47
2017-07-31T22:31:31.158Z,4.20
2017-07-31T22:34:00.614Z,4.20
2017-07-31T22:36:30.060Z,4.17
2017-07-31T22:38:59.541Z,3.87
2017-07-31T22:41:28.997Z,4.90
2017-07-31T22:43:58.421Z,4.80
2017-07-31T22:46:27.895Z,4.17
2017-07-31T22:48:57.353Z,4.77
2017-07-31T22:51:26.804Z,4.37
2017-07-31T22:53:56.250Z,4.57
2017-07-31T22:56:25.695Z,5.00
2017-07-31T22:58:55.137Z,5.20
2017-07-31T23:01:24.622Z,4.90
2017-07-31T23:03:53.915Z,4.83
2017-07-31T23:06:23.354Z,4.70
2017-07-31T23:08:52.825Z,4.60
2017-07-31T23:11:22.273Z,3.83
2017-07-31T23:13:51.728Z,4.67
2017-07-31T23:16:21.191Z,4.13
2017-07-31T23:18:50.768Z,4.80
2017-07-31T23:21:20.229Z,5.00
2017-07-31T23:23:49.668Z,4.57
2017-07-31T23:26:19.116Z,5.57
2017-07-31T23:28:48.587Z,5.10
2017-07-31T23:31:18.048Z,6.13
2017-07-31T23:33:47.478Z,4.87
2017-07-31T23:36:16.928Z,4.80
2017-07-31T23:38:46.396Z,5.00
2017-07-31T23:41:15.829Z,5.53
2017-07-31T23:43:45.315Z,6.27
2017-07-31T23:46:14.753Z,5.60
2017-07-31T23:48:44.260Z,5.93
2017-07-31T23:51:13.710Z,5.80
2017-07-31T23:53:43.167Z,7.30
2017-07-31T23:56:12.608Z,5.33
2017-07-31T23:58:42.087Z,5.83
